EST,Max TemperatureF,Mean TemperatureF,Min TemperatureF,Max Dew PointF,MeanDew PointF,Min DewpointF,Max Humidity, Mean Humidity, Min Humidity, Max Sea Level PressureIn, Mean Sea Level PressureIn, Min Sea Level PressureIn, Max VisibilityMiles, Mean VisibilityMiles, Min VisibilityMiles, Max Wind SpeedMPH, Mean Wind SpeedMPH, Max Gust SpeedMPH,PrecipitationIn, CloudCover, Events, WindDirDegrees
2013-12-1,51,44,37,19,11,7,38,27,18,30.12,30.02,29.86,,,,13,6,17,0.00,0,,237
2013-12-2,50,46,41,20,18,16,42,33,27,29.84,29.70,29.53,,,,13,5,16,0.00,2,,216
2013-12-3,51,44,38,23,19,14,42,32,28,29.55,29.47,29.32,,,,28,10,47,0.00,0,,135
2013-12-4,3,2,0,0,-1,-3,92,88,84,29.85,29.75,29.61,,,,16,11,25,0.00,7,,343
2013-12-5,3,-1,-5,1,-4,-9,92,88,85,30.25,30.01,29.74,,,,18,7,31,0.00,5,,155
2013-12-6,0,0,-1,-2,-4,-4,90,87,85,30.01,29.98,29.94,,,,14,11,17,0.00,5,,172
2013-12-7,-1,-2,-2,-4,-5,-6,88,87,85,30.36,30.20,29.90,,,,9,5,,0.00,6,,163
2013-12-8,,,,,,,,,,,,,,,,,,,,,,
2013-12-9,20,8,0,7,-2,-11,95,70,25,30.29,29.99,29.85,,,,14,5,,0.00,2,,161
2013-12-10,37,27,17,12,0,-13,53,33,19,30.27,30.16,30.00,,,,14,8,22,0.00,1,,217
2013-12-11,34,23,12,16,12,0,90,72,24,30.48,30.37,30.13,,,,18,9,24,0.00,1,,176
2013-12-12,51,43,35,8,4,-1,30,22,13,30.42,30.21,29.98,,,,14,7,18,0.00,0,,274
2013-12-13,43,36,29,15,7,-4,54,30,15,30.06,29.86,29.75,,,,22,9,30,0.00,1,,323
2013-12-14,34,28,23,15,13,9,70,52,40,30.37,30.26,30.09,,,,13,8,21,0.00,1,,205
2013-12-15,51,42,32,18,11,1,40,30,13,30.25,30.17,30.09,,,,13,7,20,0.00,1,,220
2013-12-16,54,48,42,15,10,3,29,22,16,30.27,30.12,30.04,,,,13,7,15,0.00,0,,240
2013-12-17,50,44,37,17,13,5,36,29,19,30.32,30.23,30.11,,,,10,5,16,0.00,0,,148
2013-12-18,58,52,46,12,9,4,24,18,12,30.08,29.85,29.67,,,,9,4,14,0.00,4,,278
2013-12-19,50,46,43,21,16,11,40,30,23,29.72,29.60,29.53,,,,13,8,30,0.00,2,,303
2013-12-20,24,20,16,22,18,16,100,97,86,29.83,29.69,29.61,,,,17,8,24,0.00,6,,141
2013-12-21,33,24,14,23,17,12,100,84,49,29.88,29.59,29.46,,,,17,7,29,0.00,6,,344
2013-12-22,29,24,18,21,15,6,96,76,37,30.18,30.01,29.76,,,,13,6,20,0.00,3,,235
2013-12-23,28,21,14,18,16,7,100,92,41,30.40,30.24,30.16,,,,16,8,21,0.00,2,,138
2013-12-24,,,,,,,,,,,,,,,,,,,,,,
2013-12-25,,,,,,,,,,,,,,,,,,,,,,
2013-12-26,,,,,,,,,,,,,,,,,,,,,,
2013-12-27,,,,,,,,,,,,,,,,,,,,,,
2013-12-28,,,,,,,,,,,,,,,,,,,,,,
2013-12-29,,,,,,,,,,,,,,,,,,,,,,
2013-12-30,,,,,,,,,,,,,,,,,,,,,,
2013-12-31,,,,,,,,,,,,,,,,,,,,,,